CTN5KY EDDN-LDRI
Flight info
| Callsign | CTN5KY |
|---|---|
| Flight time | 0h 55m |
| Altitude | 33000 |
| Route | RODIS1G/28 RODIS DCT RDG DCT NETES DCT DEGIN T700 BADIT DCT SBG DCT EVAXI DCT DEGUM DCT GIRDA |
| Aircraft | A319/M-SDE3FGHIRWY/LB1 |
Departure
| Time | 2026-04-20 17:47 |
|---|---|
| Airport | Nuremberg Airport (EDDN) |
Arrival
| Time | 2026-04-20 18:42 |
|---|---|
| Airport | Rijeka Airport (LDRI) |
| Time | Latitude | Longitude | Altitude | Speed | Heading |
|---|---|---|---|---|---|
| 2026-04-20 17:00 | 49.49511 | 11.07852 | 1026 ft | 0 kts | 188° |
| 2026-04-20 17:36 | 49.49517 | 11.07854 | 1023 ft | 4 kts | 188° |
| 2026-04-20 17:36 | 49.49540 | 11.07859 | 1026 ft | 2 kts | 189° |
| 2026-04-20 17:37 | 49.49563 | 11.07859 | 1027 ft | 4 kts | 149° |
| 2026-04-20 17:37 | 49.49579 | 11.07831 | 1026 ft | 3 kts | 103° |
| 2026-04-20 17:37 | 49.49580 | 11.07820 | 1027 ft | 0 kts | 98° |
| 2026-04-20 17:41 | 49.49580 | 11.07823 | 1027 ft | 2 kts | 98° |
| 2026-04-20 17:41 | 49.49575 | 11.07871 | 1027 ft | 6 kts | 98° |
| 2026-04-20 17:42 | 49.49569 | 11.07932 | 1026 ft | 6 kts | 98° |
| 2026-04-20 17:42 | 49.49562 | 11.08004 | 1027 ft | 7 kts | 98° |
| 2026-04-20 17:42 | 49.49553 | 11.08092 | 1028 ft | 9 kts | 98° |
| 2026-04-20 17:42 | 49.49544 | 11.08189 | 1024 ft | 9 kts | 98° |
| 2026-04-20 17:43 | 49.49534 | 11.08286 | 1029 ft | 9 kts | 98° |
| 2026-04-20 17:43 | 49.49557 | 11.08347 | 1030 ft | 6 kts | 23° |
| 2026-04-20 17:43 | 49.49600 | 11.08365 | 1033 ft | 8 kts | 28° |
| 2026-04-20 17:43 | 49.49609 | 11.08467 | 1034 ft | 11 kts | 95° |
| 2026-04-20 17:44 | 49.49602 | 11.08581 | 1036 ft | 10 kts | 97° |
| 2026-04-20 17:44 | 49.49590 | 11.08685 | 1036 ft | 10 kts | 99° |
| 2026-04-20 17:44 | 49.49579 | 11.08798 | 1037 ft | 11 kts | 99° |
| 2026-04-20 17:44 | 49.49568 | 11.08911 | 1038 ft | 11 kts | 98° |
| 2026-04-20 17:45 | 49.49556 | 11.09038 | 1040 ft | 14 kts | 98° |
| 2026-04-20 17:45 | 49.49537 | 11.09224 | 1043 ft | 20 kts | 99° |
| 2026-04-20 17:45 | 49.49545 | 11.09392 | 1047 ft | 14 kts | 62° |
| 2026-04-20 17:45 | 49.49599 | 11.09506 | 1050 ft | 12 kts | 53° |
| 2026-04-20 17:46 | 49.49656 | 11.09575 | 1052 ft | 10 kts | 8° |
| 2026-04-20 17:46 | 49.49703 | 11.09489 | 1051 ft | 19 kts | 278° |
| 2026-04-20 17:46 | 49.49761 | 11.08915 | 1042 ft | 92 kts | 278° |
| 2026-04-20 17:46 | 49.49895 | 11.07600 | 1030 ft | 153 kts | 278° |
| 2026-04-20 17:47 | 49.50076 | 11.05891 | 1472 ft | 164 kts | 283° |
| 2026-04-20 17:47 | 49.50247 | 11.04147 | 2215 ft | 164 kts | 283° |
| 2026-04-20 17:47 | 49.50411 | 11.02435 | 3000 ft | 160 kts | 283° |
| 2026-04-20 17:47 | 49.50591 | 11.00689 | 3490 ft | 175 kts | 283° |
| 2026-04-20 17:48 | 49.50798 | 10.98729 | 3871 ft | 196 kts | 283° |
| 2026-04-20 17:48 | 49.51033 | 10.96515 | 4213 ft | 223 kts | 282° |
| 2026-04-20 17:48 | 49.51391 | 10.94099 | 4684 ft | 245 kts | 297° |
| 2026-04-20 17:48 | 49.52595 | 10.92246 | 5445 ft | 253 kts | 335° |
| 2026-04-20 17:49 | 49.54347 | 10.91759 | 6361 ft | 262 kts | 359° |
| 2026-04-20 17:49 | 49.56169 | 10.91930 | 7392 ft | 264 kts | 2° |
| 2026-04-20 17:49 | 49.58005 | 10.92218 | 8344 ft | 268 kts | 7° |
| 2026-04-20 17:49 | 49.59775 | 10.93286 | 9192 ft | 282 kts | 31° |
| 2026-04-20 17:50 | 49.61116 | 10.95559 | 10058 ft | 296 kts | 59° |
| 2026-04-20 17:50 | 49.61626 | 10.98667 | 10834 ft | 309 kts | 88° |
| 2026-04-20 17:50 | 49.61325 | 11.02079 | 11161 ft | 334 kts | 101° |
| 2026-04-20 17:50 | 49.60815 | 11.05695 | 11501 ft | 355 kts | 102° |
| 2026-04-20 17:51 | 49.60239 | 11.09439 | 12192 ft | 362 kts | 102° |
| 2026-04-20 17:51 | 49.59648 | 11.13229 | 13000 ft | 365 kts | 102° |
| 2026-04-20 17:51 | 49.59060 | 11.17055 | 13831 ft | 368 kts | 102° |
| 2026-04-20 17:51 | 49.58480 | 11.20908 | 14572 ft | 371 kts | 101° |
| 2026-04-20 17:52 | 49.57905 | 11.24796 | 15305 ft | 373 kts | 101° |
| 2026-04-20 17:52 | 49.57332 | 11.28716 | 15885 ft | 376 kts | 101° |
| 2026-04-20 17:52 | 49.56764 | 11.32618 | 16067 ft | 378 kts | 101° |
| 2026-04-20 17:52 | 49.56188 | 11.36569 | 16103 ft | 378 kts | 101° |
| 2026-04-20 17:53 | 49.55606 | 11.40520 | 16097 ft | 378 kts | 101° |
| 2026-04-20 17:53 | 49.55023 | 11.44474 | 16097 ft | 378 kts | 101° |
| 2026-04-20 17:53 | 49.54439 | 11.48425 | 16095 ft | 378 kts | 101° |
| 2026-04-20 17:53 | 49.53854 | 11.52368 | 16092 ft | 378 kts | 101° |
| 2026-04-20 17:54 | 49.53263 | 11.56324 | 16193 ft | 382 kts | 101° |
| 2026-04-20 17:54 | 49.52667 | 11.60318 | 16959 ft | 383 kts | 101° |
| 2026-04-20 17:54 | 49.52069 | 11.64325 | 17715 ft | 386 kts | 101° |
| 2026-04-20 17:54 | 49.51466 | 11.68368 | 18428 ft | 389 kts | 101° |
| 2026-04-20 17:55 | 49.50856 | 11.72435 | 19042 ft | 392 kts | 101° |
| 2026-04-20 17:55 | 49.50446 | 11.75151 | 19419 ft | 395 kts | 101° |
| 2026-04-20 17:55 | 49.49820 | 11.79291 | 20015 ft | 398 kts | 101° |
| 2026-04-20 17:55 | 49.49191 | 11.83446 | 20657 ft | 400 kts | 101° |
| 2026-04-20 17:56 | 49.48554 | 11.87630 | 21294 ft | 403 kts | 101° |
| 2026-04-20 17:56 | 49.47634 | 11.91724 | 21888 ft | 408 kts | 112° |
| 2026-04-20 17:56 | 49.46237 | 11.95544 | 22497 ft | 413 kts | 122° |
| 2026-04-20 17:56 | 49.44398 | 11.98972 | 23076 ft | 419 kts | 133° |
| 2026-04-20 17:57 | 49.42223 | 12.01975 | 23633 ft | 422 kts | 136° |
| 2026-04-20 17:57 | 49.39995 | 12.04950 | 24069 ft | 425 kts | 137° |
| 2026-04-20 17:57 | 49.37754 | 12.07949 | 24458 ft | 430 kts | 137° |
| 2026-04-20 17:57 | 49.35488 | 12.10976 | 24853 ft | 434 kts | 137° |
| 2026-04-20 17:58 | 49.33188 | 12.14048 | 25108 ft | 442 kts | 137° |
| 2026-04-20 17:58 | 49.30850 | 12.17168 | 25368 ft | 449 kts | 140° |
| 2026-04-20 17:58 | 49.28479 | 12.20324 | 25685 ft | 455 kts | 140° |
| 2026-04-20 17:58 | 49.26078 | 12.23517 | 26042 ft | 459 kts | 140° |
| 2026-04-20 17:59 | 49.23653 | 12.26737 | 26407 ft | 463 kts | 140° |
| 2026-04-20 17:59 | 49.21209 | 12.29977 | 26753 ft | 467 kts | 141° |
| 2026-04-20 17:59 | 49.18740 | 12.33243 | 27106 ft | 472 kts | 141° |
| 2026-04-20 17:59 | 49.16280 | 12.36496 | 27447 ft | 476 kts | 141° |
| 2026-04-20 18:00 | 49.13765 | 12.39815 | 27785 ft | 480 kts | 141° |
| 2026-04-20 18:00 | 49.11231 | 12.43155 | 28108 ft | 484 kts | 141° |
| 2026-04-20 18:00 | 49.08667 | 12.46531 | 28427 ft | 488 kts | 142° |
| 2026-04-20 18:00 | 49.06077 | 12.49927 | 28674 ft | 493 kts | 144° |
| 2026-04-20 18:01 | 49.03292 | 12.52998 | 28825 ft | 495 kts | 153° |
| 2026-04-20 18:01 | 49.00251 | 12.55461 | 29063 ft | 495 kts | 160° |
| 2026-04-20 18:01 | 48.97132 | 12.57752 | 29356 ft | 499 kts | 160° |
| 2026-04-20 18:01 | 48.93993 | 12.60076 | 29645 ft | 503 kts | 160° |
| 2026-04-20 18:02 | 48.90780 | 12.62116 | 29935 ft | 499 kts | 168° |
| 2026-04-20 18:02 | 48.87444 | 12.63483 | 30203 ft | 494 kts | 177° |
| 2026-04-20 18:02 | 48.84060 | 12.64384 | 30457 ft | 495 kts | 178° |
| 2026-04-20 18:02 | 48.80662 | 12.65267 | 30730 ft | 495 kts | 179° |
| 2026-04-20 18:03 | 48.77258 | 12.66149 | 30991 ft | 496 kts | 179° |
| 2026-04-20 18:03 | 48.70464 | 12.67920 | 31060 ft | 495 kts | 178° |
| 2026-04-20 18:04 | 48.63717 | 12.69677 | 31059 ft | 495 kts | 178° |
| 2026-04-20 18:04 | 48.56927 | 12.71389 | 31064 ft | 493 kts | 180° |
| 2026-04-20 18:05 | 48.46744 | 12.73531 | 31052 ft | 491 kts | 181° |
| 2026-04-20 18:05 | 48.39953 | 12.74930 | 31054 ft | 495 kts | 178° |
| 2026-04-20 18:06 | 48.33203 | 12.77318 | 31056 ft | 498 kts | 174° |
| 2026-04-20 18:06 | 48.26474 | 12.79797 | 31054 ft | 497 kts | 174° |
| 2026-04-20 18:07 | 48.19757 | 12.82247 | 31056 ft | 497 kts | 174° |
| 2026-04-20 18:07 | 48.13077 | 12.84659 | 31058 ft | 497 kts | 174° |
| 2026-04-20 18:08 | 48.06354 | 12.87087 | 31062 ft | 497 kts | 174° |
| 2026-04-20 18:08 | 47.99640 | 12.89604 | 31059 ft | 502 kts | 169° |
| 2026-04-20 18:09 | 47.93014 | 12.93066 | 31056 ft | 504 kts | 168° |
| 2026-04-20 18:09 | 47.86421 | 12.96524 | 31063 ft | 501 kts | 168° |
| 2026-04-20 18:10 | 47.79841 | 12.99946 | 31057 ft | 500 kts | 168° |
| 2026-04-20 18:10 | 47.73318 | 13.03323 | 31058 ft | 500 kts | 168° |
| 2026-04-20 18:11 | 47.66753 | 13.06709 | 31055 ft | 498 kts | 167° |
| 2026-04-20 18:11 | 47.60217 | 13.10085 | 31059 ft | 496 kts | 167° |
| 2026-04-20 18:12 | 47.53696 | 13.13456 | 31069 ft | 496 kts | 167° |
| 2026-04-20 18:12 | 47.47182 | 13.16803 | 31072 ft | 496 kts | 168° |
| 2026-04-20 18:13 | 47.40669 | 13.20139 | 31068 ft | 494 kts | 167° |
| 2026-04-20 18:13 | 47.34276 | 13.23408 | 31065 ft | 484 kts | 167° |
| 2026-04-20 18:14 | 47.27932 | 13.26638 | 31053 ft | 482 kts | 167° |
| 2026-04-20 18:14 | 47.21599 | 13.29853 | 31047 ft | 481 kts | 167° |
| 2026-04-20 18:15 | 47.18445 | 13.31450 | 30920 ft | 478 kts | 167° |
| 2026-04-20 18:15 | 47.15305 | 13.33041 | 30117 ft | 478 kts | 168° |
| 2026-04-20 18:15 | 47.12154 | 13.34635 | 29081 ft | 480 kts | 168° |
| 2026-04-20 18:15 | 47.08986 | 13.36239 | 28102 ft | 481 kts | 168° |
| 2026-04-20 18:16 | 47.05831 | 13.37841 | 27477 ft | 477 kts | 168° |
| 2026-04-20 18:16 | 47.02710 | 13.39426 | 26823 ft | 472 kts | 168° |
| 2026-04-20 18:16 | 46.99656 | 13.40967 | 26154 ft | 468 kts | 168° |
| 2026-04-20 18:16 | 46.96592 | 13.42508 | 25552 ft | 463 kts | 168° |
| 2026-04-20 18:17 | 46.93560 | 13.44029 | 24935 ft | 459 kts | 169° |
| 2026-04-20 18:17 | 46.90550 | 13.45537 | 24328 ft | 456 kts | 169° |
| 2026-04-20 18:17 | 46.87563 | 13.47031 | 23774 ft | 452 kts | 169° |
| 2026-04-20 18:17 | 46.84599 | 13.48512 | 23160 ft | 448 kts | 169° |
| 2026-04-20 18:18 | 46.81663 | 13.49976 | 22552 ft | 444 kts | 168° |
| 2026-04-20 18:18 | 46.78751 | 13.51428 | 21922 ft | 440 kts | 168° |
| 2026-04-20 18:18 | 46.75883 | 13.52902 | 21436 ft | 435 kts | 166° |
| 2026-04-20 18:18 | 46.73066 | 13.54470 | 20907 ft | 431 kts | 164° |
| 2026-04-20 18:19 | 46.70297 | 13.56097 | 20419 ft | 428 kts | 163° |
| 2026-04-20 18:19 | 46.67559 | 13.57744 | 19974 ft | 423 kts | 163° |
| 2026-04-20 18:19 | 46.64847 | 13.59374 | 19618 ft | 420 kts | 163° |
| 2026-04-20 18:19 | 46.62179 | 13.60955 | 19361 ft | 419 kts | 163° |
| 2026-04-20 18:20 | 46.59481 | 13.62528 | 19117 ft | 417 kts | 163° |
| 2026-04-20 18:20 | 46.56791 | 13.64078 | 18940 ft | 414 kts | 163° |
| 2026-04-20 18:20 | 46.54104 | 13.65621 | 18993 ft | 416 kts | 163° |
| 2026-04-20 18:20 | 46.51410 | 13.67165 | 18999 ft | 416 kts | 163° |
| 2026-04-20 18:21 | 46.48717 | 13.68706 | 19001 ft | 417 kts | 163° |
| 2026-04-20 18:21 | 46.46013 | 13.70229 | 18997 ft | 417 kts | 164° |
| 2026-04-20 18:21 | 46.43271 | 13.71609 | 18991 ft | 416 kts | 167° |
| 2026-04-20 18:21 | 46.40531 | 13.72853 | 18685 ft | 410 kts | 168° |
| 2026-04-20 18:22 | 46.37806 | 13.74016 | 18158 ft | 406 kts | 168° |
| 2026-04-20 18:22 | 46.35103 | 13.75146 | 17641 ft | 403 kts | 168° |
| 2026-04-20 18:22 | 46.32424 | 13.76275 | 17118 ft | 398 kts | 168° |
| 2026-04-20 18:22 | 46.29779 | 13.77413 | 16547 ft | 396 kts | 167° |
| 2026-04-20 18:23 | 46.27192 | 13.78547 | 16072 ft | 392 kts | 167° |
| 2026-04-20 18:23 | 46.24600 | 13.79696 | 15586 ft | 388 kts | 167° |
| 2026-04-20 18:23 | 46.22033 | 13.80841 | 15100 ft | 385 kts | 167° |
| 2026-04-20 18:23 | 46.19486 | 13.81977 | 14618 ft | 381 kts | 166° |
| 2026-04-20 18:24 | 46.16965 | 13.83100 | 14066 ft | 376 kts | 167° |
| 2026-04-20 18:24 | 46.14468 | 13.84206 | 13537 ft | 374 kts | 166° |
| 2026-04-20 18:24 | 46.11987 | 13.85302 | 12983 ft | 371 kts | 166° |
| 2026-04-20 18:24 | 46.09538 | 13.86383 | 12441 ft | 367 kts | 166° |
| 2026-04-20 18:25 | 46.07106 | 13.87454 | 11905 ft | 364 kts | 166° |
| 2026-04-20 18:25 | 46.04694 | 13.88512 | 11585 ft | 359 kts | 166° |
| 2026-04-20 18:25 | 46.02338 | 13.89550 | 11326 ft | 348 kts | 166° |
| 2026-04-20 18:25 | 46.00057 | 13.90555 | 11083 ft | 338 kts | 166° |
| 2026-04-20 18:26 | 45.97854 | 13.91524 | 10985 ft | 324 kts | 166° |
| 2026-04-20 18:26 | 45.95780 | 13.92438 | 10988 ft | 309 kts | 166° |
| 2026-04-20 18:26 | 45.93746 | 13.93331 | 11000 ft | 304 kts | 166° |
| 2026-04-20 18:26 | 45.91721 | 13.94214 | 11003 ft | 303 kts | 166° |
| 2026-04-20 18:27 | 45.89700 | 13.95093 | 10998 ft | 303 kts | 166° |
| 2026-04-20 18:27 | 45.87734 | 13.95955 | 10990 ft | 288 kts | 166° |
| 2026-04-20 18:27 | 45.85864 | 13.96777 | 10989 ft | 275 kts | 167° |
| 2026-04-20 18:27 | 45.84046 | 13.97575 | 10984 ft | 272 kts | 167° |
| 2026-04-20 18:28 | 45.82243 | 13.98364 | 11005 ft | 271 kts | 167° |
| 2026-04-20 18:28 | 45.80445 | 13.99146 | 10806 ft | 269 kts | 167° |
| 2026-04-20 18:28 | 45.78660 | 13.99919 | 10532 ft | 267 kts | 167° |
| 2026-04-20 18:28 | 45.76884 | 14.00691 | 10254 ft | 266 kts | 167° |
| 2026-04-20 18:29 | 45.75116 | 14.01459 | 9949 ft | 264 kts | 166° |
| 2026-04-20 18:29 | 45.73357 | 14.02223 | 9679 ft | 263 kts | 166° |
| 2026-04-20 18:29 | 45.71607 | 14.02981 | 9404 ft | 262 kts | 166° |
| 2026-04-20 18:29 | 45.69889 | 14.03725 | 9149 ft | 261 kts | 167° |
| 2026-04-20 18:30 | 45.68156 | 14.04478 | 8875 ft | 260 kts | 167° |
| 2026-04-20 18:30 | 45.66432 | 14.05227 | 8614 ft | 258 kts | 166° |
| 2026-04-20 18:30 | 45.64718 | 14.05972 | 8364 ft | 257 kts | 166° |
| 2026-04-20 18:30 | 45.63012 | 14.06712 | 8130 ft | 254 kts | 166° |
| 2026-04-20 18:31 | 45.61321 | 14.07446 | 8033 ft | 253 kts | 166° |
| 2026-04-20 18:31 | 45.59691 | 14.08155 | 8037 ft | 237 kts | 166° |
| 2026-04-20 18:31 | 45.58158 | 14.08824 | 8041 ft | 223 kts | 166° |
| 2026-04-20 18:31 | 45.56711 | 14.09455 | 8050 ft | 214 kts | 167° |
| 2026-04-20 18:32 | 45.55296 | 14.10064 | 8059 ft | 212 kts | 167° |
| 2026-04-20 18:32 | 45.53892 | 14.10667 | 8049 ft | 210 kts | 167° |
| 2026-04-20 18:32 | 45.52489 | 14.11269 | 8052 ft | 210 kts | 167° |
| 2026-04-20 18:32 | 45.51088 | 14.11869 | 8067 ft | 210 kts | 167° |
| 2026-04-20 18:33 | 45.49704 | 14.12529 | 8010 ft | 210 kts | 160° |
| 2026-04-20 18:33 | 45.48450 | 14.13609 | 7691 ft | 213 kts | 144° |
| 2026-04-20 18:33 | 45.47417 | 14.15130 | 7385 ft | 215 kts | 128° |
| 2026-04-20 18:33 | 45.46693 | 14.16948 | 7099 ft | 214 kts | 113° |
| 2026-04-20 18:34 | 45.46203 | 14.18947 | 6831 ft | 213 kts | 109° |
| 2026-04-20 18:34 | 45.45718 | 14.20929 | 6567 ft | 211 kts | 110° |
| 2026-04-20 18:34 | 45.45234 | 14.22894 | 6372 ft | 209 kts | 110° |
| 2026-04-20 18:34 | 45.44753 | 14.24840 | 6184 ft | 206 kts | 110° |
| 2026-04-20 18:35 | 45.44278 | 14.26757 | 5829 ft | 205 kts | 110° |
| 2026-04-20 18:35 | 45.43808 | 14.28664 | 5485 ft | 202 kts | 110° |
| 2026-04-20 18:35 | 45.43342 | 14.30550 | 5167 ft | 200 kts | 110° |
| 2026-04-20 18:35 | 45.42891 | 14.32384 | 4876 ft | 196 kts | 110° |
| 2026-04-20 18:36 | 45.42359 | 14.34104 | 4707 ft | 185 kts | 122° |
| 2026-04-20 18:36 | 45.41572 | 14.35511 | 4416 ft | 180 kts | 136° |
| 2026-04-20 18:36 | 45.40632 | 14.36681 | 4145 ft | 179 kts | 139° |
| 2026-04-20 18:36 | 45.39700 | 14.37835 | 3868 ft | 177 kts | 139° |
| 2026-04-20 18:37 | 45.38780 | 14.38976 | 3651 ft | 174 kts | 139° |
| 2026-04-20 18:37 | 45.37870 | 14.40106 | 3482 ft | 173 kts | 138° |
| 2026-04-20 18:37 | 45.36926 | 14.41156 | 3421 ft | 171 kts | 143° |
| 2026-04-20 18:37 | 45.35964 | 14.42157 | 3408 ft | 172 kts | 143° |
| 2026-04-20 18:38 | 45.34996 | 14.43168 | 3267 ft | 173 kts | 143° |
| 2026-04-20 18:38 | 45.34035 | 14.44172 | 3058 ft | 171 kts | 143° |
| 2026-04-20 18:38 | 45.33071 | 14.45181 | 2776 ft | 173 kts | 143° |
| 2026-04-20 18:38 | 45.32068 | 14.46230 | 2552 ft | 181 kts | 142° |
| 2026-04-20 18:39 | 45.31057 | 14.47287 | 2331 ft | 177 kts | 143° |
| 2026-04-20 18:39 | 45.30125 | 14.48259 | 2099 ft | 156 kts | 142° |
| 2026-04-20 18:39 | 45.29305 | 14.49114 | 1901 ft | 142 kts | 142° |
| 2026-04-20 18:39 | 45.28525 | 14.49929 | 1714 ft | 137 kts | 142° |
| 2026-04-20 18:40 | 45.27767 | 14.50720 | 1534 ft | 134 kts | 142° |
| 2026-04-20 18:40 | 45.27017 | 14.51502 | 1354 ft | 134 kts | 142° |
| 2026-04-20 18:40 | 45.26263 | 14.52279 | 1182 ft | 134 kts | 143° |
| 2026-04-20 18:40 | 45.25506 | 14.53051 | 1002 ft | 134 kts | 140° |
| 2026-04-20 18:41 | 45.24761 | 14.53834 | 837 ft | 132 kts | 138° |
| 2026-04-20 18:41 | 45.24037 | 14.54622 | 652 ft | 131 kts | 137° |
| 2026-04-20 18:41 | 45.23310 | 14.55384 | 524 ft | 128 kts | 140° |
| 2026-04-20 18:41 | 45.22591 | 14.56116 | 295 ft | 121 kts | 140° |
| 2026-04-20 18:42 | 45.22014 | 14.56728 | 266 ft | 81 kts | 143° |
| 2026-04-20 18:42 | 45.21681 | 14.57063 | 263 ft | 47 kts | 144° |
| 2026-04-20 18:42 | 45.21408 | 14.57345 | 261 ft | 49 kts | 144° |
| 2026-04-20 18:42 | 45.21139 | 14.57624 | 257 ft | 43 kts | 143° |
| 2026-04-20 18:43 | 45.20928 | 14.57845 | 257 ft | 31 kts | 143° |
| 2026-04-20 18:43 | 45.20797 | 14.57964 | 256 ft | 13 kts | 172° |
| 2026-04-20 18:43 | 45.20788 | 14.57993 | 256 ft | 6 kts | 334° |
| 2026-04-20 18:43 | 45.20828 | 14.57948 | 256 ft | 9 kts | 322° |
| 2026-04-20 18:44 | 45.20908 | 14.57866 | 257 ft | 21 kts | 324° |
| 2026-04-20 18:44 | 45.21073 | 14.57695 | 256 ft | 37 kts | 324° |
| 2026-04-20 18:44 | 45.21298 | 14.57465 | 259 ft | 41 kts | 324° |
| 2026-04-20 18:44 | 45.21481 | 14.57273 | 262 ft | 26 kts | 324° |
| 2026-04-20 18:45 | 45.21632 | 14.57198 | 263 ft | 21 kts | 359° |
| 2026-04-20 18:45 | 45.21767 | 14.57208 | 264 ft | 14 kts | 355° |
| 2026-04-20 18:45 | 45.21849 | 14.57141 | 265 ft | 14 kts | 323° |
| 2026-04-20 18:45 | 45.21900 | 14.57088 | 265 ft | 4 kts | 330° |
| 2026-04-20 18:46 | 45.21917 | 14.57104 | 265 ft | 3 kts | 68° |
| 2026-04-20 18:46 | 45.21917 | 14.57138 | 265 ft | 0 kts | 102° |
| 2026-04-20 18:46 | 45.21916 | 14.57142 | 265 ft | 0 kts | 102° |
| 2026-04-20 18:53 | 45.21917 | 14.57142 | 266 ft | 0 kts | 106° |